sensor_id;sensor_type;location;lat;lon;timestamp;P1;durP1;ratioP1;P2;durP2;ratioP2
71562;SDS011;59391;52.504;13.438;2024-01-11T00:00:36;19.90;;;10.32;;
71562;SDS011;59391;52.504;13.438;2024-01-11T00:03:02;19.53;;;10.10;;
71562;SDS011;59391;52.504;13.438;2024-01-11T00:05:28;21.75;;;9.95;;
71562;SDS011;59391;52.504;13.438;2024-01-11T00:07:54;18.53;;;10.63;;
71562;SDS011;59391;52.504;13.438;2024-01-11T00:10:20;24.60;;;11.70;;
71562;SDS011;59391;52.504;13.438;2024-01-11T00:12:46;23.08;;;12.27;;
71562;SDS011;59391;52.504;13.438;2024-01-11T00:15:12;25.85;;;13.07;;
71562;SDS011;59391;52.504;13.438;2024-01-11T00:17:38;27.57;;;14.30;;
71562;SDS011;59391;52.504;13.438;2024-01-11T00:20:04;29.98;;;15.85;;
71562;SDS011;59391;52.504;13.438;2024-01-11T00:22:30;29.65;;;14.10;;
71562;SDS011;59391;52.504;13.438;2024-01-11T00:24:56;31.43;;;16.47;;
71562;SDS011;59391;52.504;13.438;2024-01-11T00:27:22;31.52;;;15.65;;
71562;SDS011;59391;52.504;13.438;2024-01-11T00:29:48;25.63;;;13.70;;
71562;SDS011;59391;52.504;13.438;2024-01-11T00:32:14;24.00;;;12.90;;
71562;SDS011;59391;52.504;13.438;2024-01-11T00:34:39;24.13;;;11.90;;
71562;SDS011;59391;52.504;13.438;2024-01-11T00:37:05;18.33;;;10.00;;
71562;SDS011;59391;52.504;13.438;2024-01-11T00:39:30;15.20;;;8.55;;
71562;SDS011;59391;52.504;13.438;2024-01-11T00:41:56;15.43;;;7.97;;
71562;SDS011;59391;52.504;13.438;2024-01-11T00:44:22;15.27;;;8.00;;
71562;SDS011;59391;52.504;13.438;2024-01-11T00:46:47;14.53;;;7.73;;
71562;SDS011;59391;52.504;13.438;2024-01-11T00:49:13;15.48;;;8.00;;
71562;SDS011;59391;52.504;13.438;2024-01-11T00:51:39;15.03;;;8.10;;
71562;SDS011;59391;52.504;13.438;2024-01-11T00:54:05;16.08;;;8.55;;
71562;SDS011;59391;52.504;13.438;2024-01-11T00:56:30;15.67;;;8.30;;
71562;SDS011;59391;52.504;13.438;2024-01-11T00:58:56;16.20;;;9.10;;
71562;SDS011;59391;52.504;13.438;2024-01-11T01:01:21;17.47;;;9.23;;
71562;SDS011;59391;52.504;13.438;2024-01-11T01:03:47;16.97;;;8.27;;
71562;SDS011;59391;52.504;13.438;2024-01-11T01:06:13;17.98;;;9.27;;
71562;SDS011;59391;52.504;13.438;2024-01-11T01:08:38;17.40;;;9.47;;
71562;SDS011;59391;52.504;13.438;2024-01-11T01:11:04;14.83;;;8.60;;
71562;SDS011;59391;52.504;13.438;2024-01-11T01:13:29;22.15;;;11.23;;
71562;SDS011;59391;52.504;13.438;2024-01-11T01:15:55;22.13;;;10.87;;
71562;SDS011;59391;52.504;13.438;2024-01-11T01:18:21;24.65;;;10.98;;
71562;SDS011;59391;52.504;13.438;2024-01-11T01:20:46;19.77;;;10.30;;
71562;SDS011;59391;52.504;13.438;2024-01-11T01:23:12;21.67;;;10.00;;
71562;SDS011;59391;52.504;13.438;2024-01-11T01:25:37;18.15;;;9.13;;
71562;SDS011;59391;52.504;13.438;2024-01-11T01:28:03;18.80;;;10.40;;
71562;SDS011;59391;52.504;13.438;2024-01-11T01:30:29;22.55;;;10.50;;
71562;SDS011;59391;52.504;13.438;2024-01-11T01:32:55;19.37;;;10.10;;
71562;SDS011;59391;52.504;13.438;2024-01-11T01:35:21;18.92;;;9.90;;
71562;SDS011;59391;52.504;13.438;2024-01-11T01:37:46;18.58;;;10.02;;
71562;SDS011;59391;52.504;13.438;2024-01-11T01:40:12;17.50;;;9.50;;
71562;SDS011;59391;52.504;13.438;2024-01-11T01:42:44;21.17;;;9.83;;
71562;SDS011;59391;52.504;13.438;2024-01-11T01:45:11;18.00;;;9.63;;
71562;SDS011;59391;52.504;13.438;2024-01-11T01:47:37;18.92;;;9.32;;
71562;SDS011;59391;52.504;13.438;2024-01-11T01:50:07;17.95;;;9.50;;
71562;SDS011;59391;52.504;13.438;2024-01-11T01:52:36;18.38;;;10.15;;
71562;SDS011;59391;52.504;13.438;2024-01-11T01:55:05;20.77;;;9.70;;
71562;SDS011;59391;52.504;13.438;2024-01-11T01:57:34;17.63;;;10.00;;
71562;SDS011;59391;52.504;13.438;2024-01-11T02:00:02;17.60;;;9.80;;
71562;SDS011;59391;52.504;13.438;2024-01-11T02:02:29;17.48;;;8.40;;
71562;SDS011;59391;52.504;13.438;2024-01-11T02:04:59;18.38;;;9.38;;
71562;SDS011;59391;52.504;13.438;2024-01-11T02:07:26;17.37;;;9.33;;
71562;SDS011;59391;52.504;13.438;2024-01-11T02:09:52;16.33;;;8.80;;
71562;SDS011;59391;52.504;13.438;2024-01-11T02:12:18;19.48;;;8.95;;
71562;SDS011;59391;52.504;13.438;2024-01-11T02:14:44;17.37;;;9.00;;
71562;SDS011;59391;52.504;13.438;2024-01-11T02:17:09;18.10;;;8.77;;
71562;SDS011;59391;52.504;13.438;2024-01-11T02:19:35;19.97;;;9.10;;
71562;SDS011;59391;52.504;13.438;2024-01-11T02:22:02;19.60;;;8.70;;
71562;SDS011;59391;52.504;13.438;2024-01-11T02:24:54;17.83;;;9.30;;
71562;SDS011;59391;52.504;13.438;2024-01-11T02:27:22;18.93;;;9.77;;
71562;SDS011;59391;52.504;13.438;2024-01-11T02:29:48;19.75;;;9.15;;
71562;SDS011;59391;52.504;13.438;2024-01-11T02:32:13;21.00;;;10.50;;
71562;SDS011;59391;52.504;13.438;2024-01-11T02:34:39;20.48;;;9.55;;
71562;SDS011;59391;52.504;13.438;2024-01-11T02:37:06;18.92;;;9.18;;
71562;SDS011;59391;52.504;13.438;2024-01-11T02:39:32;19.95;;;9.75;;
71562;SDS011;59391;52.504;13.438;2024-01-11T02:41:59;18.57;;;8.70;;
71562;SDS011;59391;52.504;13.438;2024-01-11T02:44:26;21.58;;;9.52;;
71562;SDS011;59391;52.504;13.438;2024-01-11T02:46:51;20.67;;;9.73;;
71562;SDS011;59391;52.504;13.438;2024-01-11T02:49:17;24.07;;;9.93;;
71562;SDS011;59391;52.504;13.438;2024-01-11T02:51:43;20.90;;;9.88;;
71562;SDS011;59391;52.504;13.438;2024-01-11T02:54:08;19.40;;;9.03;;
71562;SDS011;59391;52.504;13.438;2024-01-11T02:56:34;19.75;;;8.65;;
71562;SDS011;59391;52.504;13.438;2024-01-11T02:58:59;19.40;;;9.40;;
71562;SDS011;59391;52.504;13.438;2024-01-11T03:01:25;21.23;;;9.37;;
71562;SDS011;59391;52.504;13.438;2024-01-11T03:03:51;20.67;;;9.55;;
71562;SDS011;59391;52.504;13.438;2024-01-11T03:06:16;20.83;;;9.13;;
71562;SDS011;59391;52.504;13.438;2024-01-11T03:08:46;20.08;;;9.60;;
71562;SDS011;59391;52.504;13.438;2024-01-11T03:11:13;23.00;;;9.88;;
71562;SDS011;59391;52.504;13.438;2024-01-11T03:13:39;21.57;;;9.23;;
71562;SDS011;59391;52.504;13.438;2024-01-11T03:16:05;19.25;;;8.70;;
71562;SDS011;59391;52.504;13.438;2024-01-11T03:18:30;19.90;;;8.90;;
71562;SDS011;59391;52.504;13.438;2024-01-11T03:20:56;20.08;;;9.32;;
71562;SDS011;59391;52.504;13.438;2024-01-11T03:23:22;23.10;;;10.23;;
71562;SDS011;59391;52.504;13.438;2024-01-11T03:25:48;23.05;;;10.60;;
71562;SDS011;59391;52.504;13.438;2024-01-11T03:28:13;19.60;;;9.33;;
71562;SDS011;59391;52.504;13.438;2024-01-11T03:30:39;18.02;;;9.65;;
71562;SDS011;59391;52.504;13.438;2024-01-11T03:33:04;20.38;;;8.70;;
71562;SDS011;59391;52.504;13.438;2024-01-11T03:35:30;20.63;;;9.02;;
71562;SDS011;59391;52.504;13.438;2024-01-11T03:37:56;21.40;;;9.35;;
71562;SDS011;59391;52.504;13.438;2024-01-11T03:40:21;21.10;;;9.17;;
71562;SDS011;59391;52.504;13.438;2024-01-11T03:42:47;21.80;;;10.02;;
71562;SDS011;59391;52.504;13.438;2024-01-11T03:45:13;20.87;;;9.47;;
71562;SDS011;59391;52.504;13.438;2024-01-11T03:47:42;20.40;;;10.40;;
71562;SDS011;59391;52.504;13.438;2024-01-11T03:50:08;18.43;;;8.33;;
71562;SDS011;59391;52.504;13.438;2024-01-11T03:52:34;18.58;;;8.38;;
71562;SDS011;59391;52.504;13.438;2024-01-11T03:54:59;16.73;;;8.50;;
71562;SDS011;59391;52.504;13.438;2024-01-11T03:57:25;15.27;;;7.77;;
71562;SDS011;59391;52.504;13.438;2024-01-11T03:59:51;18.95;;;7.65;;
71562;SDS011;59391;52.504;13.438;2024-01-11T04:02:16;19.07;;;9.00;;
71562;SDS011;59391;52.504;13.438;2024-01-11T04:04:42;18.80;;;9.00;;
71562;SDS011;59391;52.504;13.438;2024-01-11T04:07:07;18.98;;;8.52;;
71562;SDS011;59391;52.504;13.438;2024-01-11T04:09:33;18.57;;;8.30;;
71562;SDS011;59391;52.504;13.438;2024-01-11T04:12:01;16.73;;;7.75;;
71562;SDS011;59391;52.504;13.438;2024-01-11T04:14:28;19.10;;;8.60;;
71562;SDS011;59391;52.504;13.438;2024-01-11T04:16:54;19.23;;;8.33;;
71562;SDS011;59391;52.504;13.438;2024-01-11T04:19:19;21.08;;;8.32;;
71562;SDS011;59391;52.504;13.438;2024-01-11T04:21:45;18.67;;;8.63;;
71562;SDS011;59391;52.504;13.438;2024-01-11T04:24:10;16.20;;;7.50;;
71562;SDS011;59391;52.504;13.438;2024-01-11T04:26:36;19.13;;;8.25;;
71562;SDS011;59391;52.504;13.438;2024-01-11T04:29:02;18.27;;;8.20;;
71562;SDS011;59391;52.504;13.438;2024-01-11T04:31:28;20.60;;;8.60;;
71562;SDS011;59391;52.504;13.438;2024-01-11T04:33:53;20.80;;;8.80;;
71562;SDS011;59391;52.504;13.438;2024-01-11T04:36:19;19.23;;;8.35;;
71562;SDS011;59391;52.504;13.438;2024-01-11T04:38:45;22.00;;;8.37;;
71562;SDS011;59391;52.504;13.438;2024-01-11T04:41:11;24.92;;;8.85;;
71562;SDS011;59391;52.504;13.438;2024-01-11T04:43:44;19.57;;;8.20;;
71562;SDS011;59391;52.504;13.438;2024-01-11T04:46:17;25.90;;;9.18;;
71562;SDS011;59391;52.504;13.438;2024-01-11T04:48:47;22.02;;;8.85;;
71562;SDS011;59391;52.504;13.438;2024-01-11T04:51:15;26.38;;;8.75;;
71562;SDS011;59391;52.504;13.438;2024-01-11T04:53:42;23.55;;;9.15;;
71562;SDS011;59391;52.504;13.438;2024-01-11T04:56:10;24.53;;;8.27;;
71562;SDS011;59391;52.504;13.438;2024-01-11T04:58:41;23.15;;;9.13;;
71562;SDS011;59391;52.504;13.438;2024-01-11T05:01:15;24.60;;;9.35;;
71562;SDS011;59391;52.504;13.438;2024-01-11T05:03:45;25.02;;;9.07;;
71562;SDS011;59391;52.504;13.438;2024-01-11T05:06:15;25.13;;;9.18;;
71562;SDS011;59391;52.504;13.438;2024-01-11T05:08:51;29.43;;;9.47;;
71562;SDS011;59391;52.504;13.438;2024-01-11T05:11:18;20.80;;;8.93;;
71562;SDS011;59391;52.504;13.438;2024-01-11T05:13:45;22.13;;;9.15;;
71562;SDS011;59391;52.504;13.438;2024-01-11T05:16:30;25.38;;;9.75;;
71562;SDS011;59391;52.504;13.438;2024-01-11T05:18:56;26.77;;;10.05;;
71562;SDS011;59391;52.504;13.438;2024-01-11T05:21:23;24.53;;;10.20;;
71562;SDS011;59391;52.504;13.438;2024-01-11T05:23:49;27.13;;;9.23;;
71562;SDS011;59391;52.504;13.438;2024-01-11T05:26:16;27.08;;;10.35;;
71562;SDS011;59391;52.504;13.438;2024-01-11T05:28:43;24.35;;;9.18;;
71562;SDS011;59391;52.504;13.438;2024-01-11T05:31:09;28.65;;;9.15;;
71562;SDS011;59391;52.504;13.438;2024-01-11T05:33:37;27.83;;;10.13;;
71562;SDS011;59391;52.504;13.438;2024-01-11T05:36:04;26.52;;;9.90;;
71562;SDS011;59391;52.504;13.438;2024-01-11T05:38:30;29.92;;;10.30;;
71562;SDS011;59391;52.504;13.438;2024-01-11T05:40:56;29.98;;;10.55;;
71562;SDS011;59391;52.504;13.438;2024-01-11T05:43:22;25.23;;;10.00;;
71562;SDS011;59391;52.504;13.438;2024-01-11T05:45:48;26.20;;;10.75;;
71562;SDS011;59391;52.504;13.438;2024-01-11T05:48:15;29.52;;;10.95;;
71562;SDS011;59391;52.504;13.438;2024-01-11T05:50:41;30.30;;;10.50;;
71562;SDS011;59391;52.504;13.438;2024-01-11T05:53:08;28.25;;;10.50;;
71562;SDS011;59391;52.504;13.438;2024-01-11T05:55:36;26.27;;;10.95;;
71562;SDS011;59391;52.504;13.438;2024-01-11T05:58:02;26.25;;;10.98;;
71562;SDS011;59391;52.504;13.438;2024-01-11T06:00:28;32.33;;;11.00;;
71562;SDS011;59391;52.504;13.438;2024-01-11T06:02:54;33.03;;;11.70;;
71562;SDS011;59391;52.504;13.438;2024-01-11T06:05:19;26.48;;;9.55;;
71562;SDS011;59391;52.504;13.438;2024-01-11T06:07:45;28.57;;;11.37;;
71562;SDS011;59391;52.504;13.438;2024-01-11T06:10:11;30.23;;;12.03;;
71562;SDS011;59391;52.504;13.438;2024-01-11T06:12:36;28.70;;;11.13;;
71562;SDS011;59391;52.504;13.438;2024-01-11T06:15:02;30.13;;;10.93;;
71562;SDS011;59391;52.504;13.438;2024-01-11T06:17:28;30.50;;;10.88;;
71562;SDS011;59391;52.504;13.438;2024-01-11T06:19:54;30.73;;;11.38;;
71562;SDS011;59391;52.504;13.438;2024-01-11T06:22:20;35.03;;;10.77;;
71562;SDS011;59391;52.504;13.438;2024-01-11T06:24:46;28.75;;;11.32;;
71562;SDS011;59391;52.504;13.438;2024-01-11T06:27:11;35.33;;;11.27;;
71562;SDS011;59391;52.504;13.438;2024-01-11T06:29:37;32.80;;;11.65;;
71562;SDS011;59391;52.504;13.438;2024-01-11T06:32:03;31.10;;;11.90;;
71562;SDS011;59391;52.504;13.438;2024-01-11T06:34:28;37.95;;;12.45;;
71562;SDS011;59391;52.504;13.438;2024-01-11T06:36:55;33.57;;;11.63;;
71562;SDS011;59391;52.504;13.438;2024-01-11T06:39:21;37.08;;;12.07;;
71562;SDS011;59391;52.504;13.438;2024-01-11T06:41:46;35.58;;;12.02;;
71562;SDS011;59391;52.504;13.438;2024-01-11T06:44:12;32.20;;;11.83;;
71562;SDS011;59391;52.504;13.438;2024-01-11T06:46:38;31.53;;;12.03;;
71562;SDS011;59391;52.504;13.438;2024-01-11T06:49:09;32.15;;;11.32;;
71562;SDS011;59391;52.504;13.438;2024-01-11T06:51:34;37.10;;;12.43;;
71562;SDS011;59391;52.504;13.438;2024-01-11T06:54:00;34.37;;;11.93;;
71562;SDS011;59391;52.504;13.438;2024-01-11T06:56:26;35.88;;;12.32;;
71562;SDS011;59391;52.504;13.438;2024-01-11T06:58:52;33.58;;;12.63;;
71562;SDS011;59391;52.504;13.438;2024-01-11T07:01:19;32.35;;;11.48;;
71562;SDS011;59391;52.504;13.438;2024-01-11T07:03:45;33.67;;;10.37;;
71562;SDS011;59391;52.504;13.438;2024-01-11T07:06:11;33.97;;;11.82;;
71562;SDS011;59391;52.504;13.438;2024-01-11T07:08:37;36.10;;;12.40;;
71562;SDS011;59391;52.504;13.438;2024-01-11T07:11:03;29.67;;;11.50;;
71562;SDS011;59391;52.504;13.438;2024-01-11T07:13:29;30.08;;;12.20;;
71562;SDS011;59391;52.504;13.438;2024-01-11T07:15:56;32.45;;;11.90;;
71562;SDS011;59391;52.504;13.438;2024-01-11T07:18:23;37.85;;;12.50;;
71562;SDS011;59391;52.504;13.438;2024-01-11T07:20:50;32.50;;;11.87;;
71562;SDS011;59391;52.504;13.438;2024-01-11T07:23:17;34.28;;;12.57;;
71562;SDS011;59391;52.504;13.438;2024-01-11T07:25:42;38.17;;;12.82;;
71562;SDS011;59391;52.504;13.438;2024-01-11T07:28:08;34.23;;;12.13;;
71562;SDS011;59391;52.504;13.438;2024-01-11T07:30:34;35.03;;;13.30;;
71562;SDS011;59391;52.504;13.438;2024-01-11T07:33:00;38.08;;;13.68;;
71562;SDS011;59391;52.504;13.438;2024-01-11T07:35:26;36.93;;;12.60;;
71562;SDS011;59391;52.504;13.438;2024-01-11T07:37:52;35.45;;;12.50;;
71562;SDS011;59391;52.504;13.438;2024-01-11T07:40:18;38.13;;;12.87;;
71562;SDS011;59391;52.504;13.438;2024-01-11T07:42:43;35.42;;;13.30;;
71562;SDS011;59391;52.504;13.438;2024-01-11T07:45:10;37.07;;;13.30;;
71562;SDS011;59391;52.504;13.438;2024-01-11T07:47:36;37.53;;;13.25;;
71562;SDS011;59391;52.504;13.438;2024-01-11T07:50:06;37.40;;;12.63;;
71562;SDS011;59391;52.504;13.438;2024-01-11T07:52:37;35.80;;;12.93;;
71562;SDS011;59391;52.504;13.438;2024-01-11T07:55:06;30.52;;;10.90;;
71562;SDS011;59391;52.504;13.438;2024-01-11T07:57:34;34.00;;;12.07;;
71562;SDS011;59391;52.504;13.438;2024-01-11T08:00:02;33.38;;;11.65;;
71562;SDS011;59391;52.504;13.438;2024-01-11T08:02:31;35.42;;;12.88;;
71562;SDS011;59391;52.504;13.438;2024-01-11T08:04:57;31.58;;;12.32;;
71562;SDS011;59391;52.504;13.438;2024-01-11T08:07:24;32.40;;;11.88;;
71562;SDS011;59391;52.504;13.438;2024-01-11T08:09:51;30.67;;;11.93;;
71562;SDS011;59391;52.504;13.438;2024-01-11T08:12:17;34.92;;;13.10;;
71562;SDS011;59391;52.504;13.438;2024-01-11T08:14:43;37.50;;;12.37;;
71562;SDS011;59391;52.504;13.438;2024-01-11T08:17:09;36.67;;;12.48;;
71562;SDS011;59391;52.504;13.438;2024-01-11T08:19:35;34.95;;;12.13;;
71562;SDS011;59391;52.504;13.438;2024-01-11T08:22:01;35.00;;;13.27;;
71562;SDS011;59391;52.504;13.438;2024-01-11T08:24:27;38.00;;;12.70;;
71562;SDS011;59391;52.504;13.438;2024-01-11T08:26:52;37.27;;;12.90;;
71562;SDS011;59391;52.504;13.438;2024-01-11T08:29:18;31.45;;;11.75;;
71562;SDS011;59391;52.504;13.438;2024-01-11T08:31:45;35.90;;;11.67;;
71562;SDS011;59391;52.504;13.438;2024-01-11T08:34:11;34.72;;;12.75;;
71562;SDS011;59391;52.504;13.438;2024-01-11T08:36:37;32.17;;;11.68;;
71562;SDS011;59391;52.504;13.438;2024-01-11T08:39:06;38.77;;;13.60;;
71562;SDS011;59391;52.504;13.438;2024-01-11T08:41:33;33.67;;;11.35;;
71562;SDS011;59391;52.504;13.438;2024-01-11T08:44:20;34.17;;;11.60;;
71562;SDS011;59391;52.504;13.438;2024-01-11T08:46:45;35.97;;;13.17;;
71562;SDS011;59391;52.504;13.438;2024-01-11T08:49:11;36.90;;;13.05;;
71562;SDS011;59391;52.504;13.438;2024-01-11T08:51:36;35.47;;;12.27;;
71562;SDS011;59391;52.504;13.438;2024-01-11T08:54:03;34.45;;;11.80;;
71562;SDS011;59391;52.504;13.438;2024-01-11T08:56:29;33.03;;;11.60;;
71562;SDS011;59391;52.504;13.438;2024-01-11T08:58:54;38.97;;;13.13;;
71562;SDS011;59391;52.504;13.438;2024-01-11T09:01:20;32.83;;;11.90;;
71562;SDS011;59391;52.504;13.438;2024-01-11T09:03:47;33.65;;;12.07;;
71562;SDS011;59391;52.504;13.438;2024-01-11T09:06:15;35.70;;;12.60;;
71562;SDS011;59391;52.504;13.438;2024-01-11T09:08:41;30.20;;;11.33;;
71562;SDS011;59391;52.504;13.438;2024-01-11T09:11:07;35.90;;;13.95;;
71562;SDS011;59391;52.504;13.438;2024-01-11T09:13:32;33.47;;;12.83;;
71562;SDS011;59391;52.504;13.438;2024-01-11T09:15:58;37.88;;;13.18;;
71562;SDS011;59391;52.504;13.438;2024-01-11T09:18:24;37.83;;;13.30;;
71562;SDS011;59391;52.504;13.438;2024-01-11T09:20:49;36.50;;;14.05;;
71562;SDS011;59391;52.504;13.438;2024-01-11T09:23:15;39.27;;;12.93;;
71562;SDS011;59391;52.504;13.438;2024-01-11T09:25:41;33.67;;;12.60;;
71562;SDS011;59391;52.504;13.438;2024-01-11T09:28:07;34.80;;;13.00;;
71562;SDS011;59391;52.504;13.438;2024-01-11T09:30:32;35.60;;;12.45;;
71562;SDS011;59391;52.504;13.438;2024-01-11T09:32:58;37.78;;;13.82;;
71562;SDS011;59391;52.504;13.438;2024-01-11T09:35:24;40.33;;;14.33;;
71562;SDS011;59391;52.504;13.438;2024-01-11T09:37:50;36.72;;;13.07;;
71562;SDS011;59391;52.504;13.438;2024-01-11T09:40:17;35.33;;;12.38;;
71562;SDS011;59391;52.504;13.438;2024-01-11T09:42:44;39.20;;;14.90;;
71562;SDS011;59391;52.504;13.438;2024-01-11T09:45:12;38.97;;;13.38;;
71562;SDS011;59391;52.504;13.438;2024-01-11T09:47:40;34.40;;;13.23;;
71562;SDS011;59391;52.504;13.438;2024-01-11T09:50:09;40.03;;;13.43;;
71562;SDS011;59391;52.504;13.438;2024-01-11T09:52:36;39.70;;;14.15;;
71562;SDS011;59391;52.504;13.438;2024-01-11T09:55:06;35.85;;;13.80;;
71562;SDS011;59391;52.504;13.438;2024-01-11T09:57:38;40.92;;;14.27;;
71562;SDS011;59391;52.504;13.438;2024-01-11T10:00:18;37.80;;;14.27;;
71562;SDS011;59391;52.504;13.438;2024-01-11T10:02:48;34.30;;;12.63;;
71562;SDS011;59391;52.504;13.438;2024-01-11T10:05:15;40.15;;;13.45;;
71562;SDS011;59391;52.504;13.438;2024-01-11T10:07:43;36.15;;;13.57;;
71562;SDS011;59391;52.504;13.438;2024-01-11T10:10:08;33.07;;;13.83;;
71562;SDS011;59391;52.504;13.438;2024-01-11T10:12:35;38.60;;;14.13;;
71562;SDS011;59391;52.504;13.438;2024-01-11T10:15:10;38.13;;;13.30;;
71562;SDS011;59391;52.504;13.438;2024-01-11T10:17:42;35.33;;;12.95;;
71562;SDS011;59391;52.504;13.438;2024-01-11T10:20:10;33.00;;;12.77;;
71562;SDS011;59391;52.504;13.438;2024-01-11T10:22:40;31.57;;;12.20;;
71562;SDS011;59391;52.504;13.438;2024-01-11T10:25:10;33.55;;;12.38;;
71562;SDS011;59391;52.504;13.438;2024-01-11T10:27:41;34.53;;;13.35;;
71562;SDS011;59391;52.504;13.438;2024-01-11T10:30:09;31.90;;;12.48;;
71562;SDS011;59391;52.504;13.438;2024-01-11T10:32:38;38.25;;;13.20;;
71562;SDS011;59391;52.504;13.438;2024-01-11T10:35:04;37.70;;;13.43;;
71562;SDS011;59391;52.504;13.438;2024-01-11T10:37:31;31.85;;;12.35;;
71562;SDS011;59391;52.504;13.438;2024-01-11T10:40:03;37.17;;;13.48;;
71562;SDS011;59391;52.504;13.438;2024-01-11T10:42:35;38.30;;;13.80;;
71562;SDS011;59391;52.504;13.438;2024-01-11T10:45:10;37.38;;;13.50;;
71562;SDS011;59391;52.504;13.438;2024-01-11T10:47:51;40.67;;;13.90;;
71562;SDS011;59391;52.504;13.438;2024-01-11T10:50:23;39.78;;;14.23;;
71562;SDS011;59391;52.504;13.438;2024-01-11T10:53:02;41.15;;;15.23;;
71562;SDS011;59391;52.504;13.438;2024-01-11T10:55:42;40.38;;;14.75;;
71562;SDS011;59391;52.504;13.438;2024-01-11T10:58:10;40.70;;;15.85;;
71562;SDS011;59391;52.504;13.438;2024-01-11T11:00:38;41.00;;;14.23;;
71562;SDS011;59391;52.504;13.438;2024-01-11T11:03:05;36.50;;;13.93;;
71562;SDS011;59391;52.504;13.438;2024-01-11T11:05:31;41.08;;;15.02;;
71562;SDS011;59391;52.504;13.438;2024-01-11T11:08:02;39.30;;;14.48;;
71562;SDS011;59391;52.504;13.438;2024-01-11T11:10:31;37.87;;;14.47;;
71562;SDS011;59391;52.504;13.438;2024-01-11T11:12:59;40.03;;;14.38;;
71562;SDS011;59391;52.504;13.438;2024-01-11T11:15:28;36.88;;;14.82;;
71562;SDS011;59391;52.504;13.438;2024-01-11T11:17:54;37.20;;;14.85;;
71562;SDS011;59391;52.504;13.438;2024-01-11T11:20:21;38.15;;;14.50;;
71562;SDS011;59391;52.504;13.438;2024-01-11T11:23:06;40.13;;;14.67;;
71562;SDS011;59391;52.504;13.438;2024-01-11T11:25:32;38.67;;;13.93;;
71562;SDS011;59391;52.504;13.438;2024-01-11T11:27:59;38.40;;;14.10;;
71562;SDS011;59391;52.504;13.438;2024-01-11T11:30:31;41.28;;;15.07;;
71562;SDS011;59391;52.504;13.438;2024-01-11T11:32:58;38.28;;;14.55;;
71562;SDS011;59391;52.504;13.438;2024-01-11T11:35:43;37.13;;;14.23;;
71562;SDS011;59391;52.504;13.438;2024-01-11T11:41:06;32.50;;;13.30;;
71562;SDS011;59391;52.504;13.438;2024-01-11T11:43:32;32.85;;;13.68;;
71562;SDS011;59391;52.504;13.438;2024-01-11T11:45:59;34.20;;;13.53;;
71562;SDS011;59391;52.504;13.438;2024-01-11T11:53:34;32.38;;;12.73;;
71562;SDS011;59391;52.504;13.438;2024-01-11T11:56:02;33.47;;;13.68;;
71562;SDS011;59391;52.504;13.438;2024-01-11T11:58:29;35.40;;;13.57;;
71562;SDS011;59391;52.504;13.438;2024-01-11T12:00:56;36.03;;;13.65;;
71562;SDS011;59391;52.504;13.438;2024-01-11T12:03:25;44.00;;;16.05;;
71562;SDS011;59391;52.504;13.438;2024-01-11T12:06:00;31.88;;;13.30;;
71562;SDS011;59391;52.504;13.438;2024-01-11T12:08:26;31.10;;;12.70;;
71562;SDS011;59391;52.504;13.438;2024-01-11T12:10:52;32.08;;;13.00;;
71562;SDS011;59391;52.504;13.438;2024-01-11T12:13:18;35.35;;;13.40;;
71562;SDS011;59391;52.504;13.438;2024-01-11T12:15:45;32.53;;;13.47;;
71562;SDS011;59391;52.504;13.438;2024-01-11T12:18:11;33.00;;;12.95;;
71562;SDS011;59391;52.504;13.438;2024-01-11T12:20:37;31.63;;;12.40;;
71562;SDS011;59391;52.504;13.438;2024-01-11T12:23:03;32.97;;;13.20;;
71562;SDS011;59391;52.504;13.438;2024-01-11T12:25:30;29.88;;;12.50;;
71562;SDS011;59391;52.504;13.438;2024-01-11T12:27:56;34.15;;;14.75;;
71562;SDS011;59391;52.504;13.438;2024-01-11T12:30:22;30.98;;;12.75;;
71562;SDS011;59391;52.504;13.438;2024-01-11T12:32:50;36.60;;;14.00;;
71562;SDS011;59391;52.504;13.438;2024-01-11T12:35:16;34.40;;;13.43;;
71562;SDS011;59391;52.504;13.438;2024-01-11T12:40:21;31.15;;;13.80;;
71562;SDS011;59391;52.504;13.438;2024-01-11T12:42:47;32.40;;;13.48;;
71562;SDS011;59391;52.504;13.438;2024-01-11T12:45:15;31.35;;;12.60;;
71562;SDS011;59391;52.504;13.438;2024-01-11T12:47:42;31.07;;;13.43;;
71562;SDS011;59391;52.504;13.438;2024-01-11T12:50:09;32.88;;;12.90;;
71562;SDS011;59391;52.504;13.438;2024-01-11T12:52:37;32.08;;;13.95;;
71562;SDS011;59391;52.504;13.438;2024-01-11T12:55:03;35.30;;;14.23;;
71562;SDS011;59391;52.504;13.438;2024-01-11T12:57:43;33.50;;;12.75;;
71562;SDS011;59391;52.504;13.438;2024-01-11T13:00:09;32.97;;;12.97;;
71562;SDS011;59391;52.504;13.438;2024-01-11T13:02:36;34.35;;;14.32;;
71562;SDS011;59391;52.504;13.438;2024-01-11T13:05:02;32.13;;;13.50;;
71562;SDS011;59391;52.504;13.438;2024-01-11T13:07:30;29.13;;;12.33;;
71562;SDS011;59391;52.504;13.438;2024-01-11T13:09:55;32.08;;;12.93;;
71562;SDS011;59391;52.504;13.438;2024-01-11T13:12:21;32.95;;;13.32;;
71562;SDS011;59391;52.504;13.438;2024-01-11T13:14:47;31.40;;;13.10;;
71562;SDS011;59391;52.504;13.438;2024-01-11T13:17:13;29.80;;;12.48;;
71562;SDS011;59391;52.504;13.438;2024-01-11T13:19:39;31.55;;;11.98;;
71562;SDS011;59391;52.504;13.438;2024-01-11T13:22:05;33.15;;;12.93;;
71562;SDS011;59391;52.504;13.438;2024-01-11T13:24:30;30.03;;;11.40;;
71562;SDS011;59391;52.504;13.438;2024-01-11T13:26:56;29.63;;;11.60;;
71562;SDS011;59391;52.504;13.438;2024-01-11T13:29:22;29.90;;;11.83;;
71562;SDS011;59391;52.504;13.438;2024-01-11T13:31:47;24.80;;;11.50;;
71562;SDS011;59391;52.504;13.438;2024-01-11T13:34:13;23.80;;;10.67;;
71562;SDS011;59391;52.504;13.438;2024-01-11T13:36:38;28.80;;;12.10;;
71562;SDS011;59391;52.504;13.438;2024-01-11T13:39:04;26.77;;;11.50;;
71562;SDS011;59391;52.504;13.438;2024-01-11T13:41:33;28.38;;;11.65;;
71562;SDS011;59391;52.504;13.438;2024-01-11T13:43:58;27.10;;;10.63;;
71562;SDS011;59391;52.504;13.438;2024-01-11T13:46:25;24.98;;;10.82;;
71562;SDS011;59391;52.504;13.438;2024-01-11T13:48:50;26.20;;;11.10;;
71562;SDS011;59391;52.504;13.438;2024-01-11T13:51:16;26.13;;;10.75;;
71562;SDS011;59391;52.504;13.438;2024-01-11T13:53:42;24.95;;;10.65;;
71562;SDS011;59391;52.504;13.438;2024-01-11T13:56:07;25.77;;;10.97;;
71562;SDS011;59391;52.504;13.438;2024-01-11T13:58:34;27.40;;;11.60;;
71562;SDS011;59391;52.504;13.438;2024-01-11T14:00:59;28.40;;;11.17;;
71562;SDS011;59391;52.504;13.438;2024-01-11T14:03:25;24.17;;;10.80;;
71562;SDS011;59391;52.504;13.438;2024-01-11T14:05:51;25.03;;;11.13;;
71562;SDS011;59391;52.504;13.438;2024-01-11T14:08:17;23.65;;;10.98;;
71562;SDS011;59391;52.504;13.438;2024-01-11T14:10:42;23.93;;;10.77;;
71562;SDS011;59391;52.504;13.438;2024-01-11T14:13:08;26.40;;;10.93;;
71562;SDS011;59391;52.504;13.438;2024-01-11T14:15:34;21.50;;;9.60;;
71562;SDS011;59391;52.504;13.438;2024-01-11T14:18:00;24.85;;;11.55;;
71562;SDS011;59391;52.504;13.438;2024-01-11T14:20:26;22.87;;;10.30;;
71562;SDS011;59391;52.504;13.438;2024-01-11T14:22:52;22.20;;;10.02;;